createdAt,value
2018-09-14T00:00:21.346Z,16.70
2018-09-14T00:02:50.394Z,16.70
2018-09-14T00:05:19.476Z,16.70
2018-09-14T00:07:48.490Z,16.70
2018-09-14T00:10:17.763Z,16.60
2018-09-14T00:12:46.873Z,16.60
2018-09-14T00:15:16.044Z,16.60
2018-09-14T00:17:45.151Z,16.60
2018-09-14T00:20:14.361Z,16.60
2018-09-14T00:22:43.415Z,16.50
2018-09-14T00:25:12.494Z,16.50
2018-09-14T00:27:41.580Z,16.50
2018-09-14T00:30:10.632Z,16.50
2018-09-14T00:32:39.734Z,16.50
2018-09-14T00:35:08.911Z,16.50
2018-09-14T00:37:38.136Z,16.50
2018-09-14T00:40:07.517Z,16.50
2018-09-14T00:42:36.606Z,16.50
2018-09-14T00:45:06.764Z,16.40
2018-09-14T00:47:36.006Z,16.40
2018-09-14T00:50:05.475Z,16.40
2018-09-14T00:52:34.572Z,16.40
2018-09-14T00:55:03.707Z,16.40
2018-09-14T00:57:32.905Z,16.40
2018-09-14T01:00:01.952Z,16.40
2018-09-14T01:02:31.111Z,16.40
2018-09-14T01:05:00.214Z,16.40
2018-09-14T01:07:29.350Z,16.40
2018-09-14T01:09:58.509Z,16.40
2018-09-14T01:12:27.637Z,16.40
2018-09-14T01:14:56.760Z,16.50
2018-09-14T01:17:28.748Z,16.50
2018-09-14T01:19:57.856Z,16.50
2018-09-14T01:22:26.932Z,16.60
2018-09-14T01:24:56.061Z,16.60
2018-09-14T01:27:25.214Z,16.60
2018-09-14T01:29:54.241Z,16.70
2018-09-14T01:32:23.384Z,16.70
2018-09-14T01:34:52.560Z,16.70
2018-09-14T01:37:21.641Z,16.70
2018-09-14T01:39:50.792Z,16.70
2018-09-14T01:42:19.828Z,16.80
2018-09-14T01:44:48.955Z,16.80
2018-09-14T01:47:18.066Z,16.80
2018-09-14T01:49:47.146Z,16.80
2018-09-14T01:52:16.283Z,16.80
2018-09-14T01:54:45.385Z,16.80
2018-09-14T01:57:14.472Z,16.80
2018-09-14T01:59:43.583Z,16.90
2018-09-14T02:02:12.689Z,16.90
2018-09-14T02:04:41.789Z,17.10
2018-09-14T02:07:10.899Z,17.20
2018-09-14T02:09:40.088Z,17.40
2018-09-14T02:12:09.260Z,17.40
2018-09-14T02:14:38.370Z,17.50
2018-09-14T02:17:07.461Z,17.60
2018-09-14T02:19:36.580Z,17.70
2018-09-14T02:22:05.687Z,17.80
2018-09-14T02:24:34.862Z,17.90
2018-09-14T02:27:03.979Z,18.00
2018-09-14T02:29:33.085Z,18.00
2018-09-14T02:32:02.126Z,18.10
2018-09-14T02:34:31.239Z,18.10
2018-09-14T02:37:00.334Z,18.10
2018-09-14T02:39:29.400Z,18.10
2018-09-14T02:41:58.494Z,18.10
2018-09-14T02:44:27.575Z,18.10
2018-09-14T02:46:56.655Z,18.10
2018-09-14T02:49:25.850Z,18.10
2018-09-14T02:51:54.914Z,18.20
2018-09-14T02:54:24.065Z,18.20
2018-09-14T02:56:53.190Z,18.30
2018-09-14T02:59:22.398Z,18.30
2018-09-14T03:01:51.569Z,18.30
2018-09-14T03:04:20.731Z,18.30
2018-09-14T03:06:49.920Z,18.30
2018-09-14T03:09:18.964Z,18.30
2018-09-14T03:11:48.142Z,18.30
2018-09-14T03:14:17.258Z,18.30
2018-09-14T03:16:46.419Z,18.20
2018-09-14T03:19:15.512Z,18.10
2018-09-14T03:21:44.688Z,18.00
2018-09-14T03:24:13.807Z,18.00
2018-09-14T03:26:42.929Z,18.00
2018-09-14T03:29:12.081Z,18.00
2018-09-14T03:31:41.195Z,18.00
2018-09-14T03:34:10.367Z,18.00
2018-09-14T03:36:39.458Z,18.00
2018-09-14T03:39:10.126Z,17.90
2018-09-14T03:41:39.535Z,18.00
2018-09-14T03:44:08.758Z,18.00
2018-09-14T03:46:37.820Z,18.10
2018-09-14T03:49:07.001Z,18.20
2018-09-14T03:51:36.134Z,18.20
2018-09-14T03:54:05.189Z,18.30
2018-09-14T03:56:34.329Z,18.40
2018-09-14T03:59:03.451Z,18.40
2018-09-14T04:01:32.616Z,18.40
2018-09-14T04:04:01.686Z,18.40
2018-09-14T04:06:30.876Z,18.50
2018-09-14T04:09:00.009Z,18.50
2018-09-14T04:11:29.112Z,18.40
2018-09-14T04:13:58.247Z,18.50
2018-09-14T04:16:27.358Z,18.50
2018-09-14T04:19:02.180Z,18.40
2018-09-14T04:21:32.441Z,18.40
2018-09-14T04:24:01.489Z,18.30
2018-09-14T04:26:30.666Z,18.30
2018-09-14T04:29:00.595Z,18.40
2018-09-14T04:31:29.860Z,18.40
2018-09-14T04:33:59.018Z,18.40
2018-09-14T04:36:28.068Z,18.40
2018-09-14T04:38:57.146Z,18.40
2018-09-14T04:41:26.256Z,18.40
2018-09-14T04:43:55.779Z,18.40
2018-09-14T04:46:24.919Z,18.40
2018-09-14T04:48:54.032Z,18.50
2018-09-14T04:51:23.117Z,18.50
2018-09-14T04:53:52.247Z,18.50
2018-09-14T04:56:21.249Z,18.50
2018-09-14T04:58:50.401Z,18.50
2018-09-14T05:01:19.456Z,18.60
2018-09-14T05:03:48.676Z,18.60
2018-09-14T05:06:17.800Z,18.70
2018-09-14T05:08:56.631Z,18.70
2018-09-14T05:11:25.761Z,18.80
2018-09-14T05:13:55.019Z,18.90
2018-09-14T05:16:24.293Z,19.00
2018-09-14T05:18:53.455Z,19.00
2018-09-14T05:21:22.642Z,19.10
2018-09-14T05:23:51.772Z,19.10
2018-09-14T05:26:20.966Z,19.10
2018-09-14T05:28:50.051Z,19.20
2018-09-14T05:31:19.133Z,19.20
2018-09-14T05:33:48.178Z,19.30
2018-09-14T05:36:17.316Z,19.30
2018-09-14T05:38:46.367Z,19.40
2018-09-14T05:41:15.461Z,19.50
2018-09-14T05:43:44.537Z,19.60
2018-09-14T05:46:13.589Z,19.70
2018-09-14T05:48:42.744Z,19.70
2018-09-14T05:51:11.848Z,19.80
2018-09-14T05:53:41.121Z,19.80
2018-09-14T05:56:10.325Z,19.70
2018-09-14T05:58:39.491Z,19.70
2018-09-14T06:01:08.512Z,19.80
2018-09-14T06:03:37.696Z,19.70
2018-09-14T06:06:06.862Z,19.70
2018-09-14T06:08:35.937Z,19.70
2018-09-14T06:11:05.141Z,19.80
2018-09-14T06:13:34.259Z,19.80
2018-09-14T06:16:03.328Z,19.90
2018-09-14T06:18:32.469Z,19.90
2018-09-14T06:21:01.628Z,19.90
2018-09-14T06:23:30.726Z,19.90
2018-09-14T06:25:59.852Z,20.00
2018-09-14T06:28:29.007Z,20.00
2018-09-14T06:30:58.111Z,20.10
2018-09-14T06:33:27.200Z,20.00
2018-09-14T06:35:56.361Z,20.00
2018-09-14T06:38:25.476Z,20.00
2018-09-14T06:41:03.221Z,20.00
2018-09-14T06:43:32.363Z,19.90
2018-09-14T06:46:01.439Z,19.90
2018-09-14T06:48:30.529Z,19.90
2018-09-14T06:50:59.630Z,19.80
2018-09-14T06:53:28.835Z,19.80
2018-09-14T06:55:57.918Z,19.70
2018-09-14T06:58:27.039Z,19.70
2018-09-14T07:00:56.109Z,19.80
2018-09-14T07:03:25.321Z,19.90
2018-09-14T07:05:54.475Z,19.90
2018-09-14T07:08:23.512Z,19.90
2018-09-14T07:10:52.702Z,20.00
2018-09-14T07:13:21.834Z,20.00
2018-09-14T07:15:50.951Z,20.00
2018-09-14T07:18:20.096Z,20.00
2018-09-14T07:20:49.200Z,19.90
2018-09-14T07:23:18.265Z,19.90
2018-09-14T07:25:47.444Z,19.90
2018-09-14T07:28:16.644Z,19.90
2018-09-14T07:30:45.764Z,19.90
2018-09-14T07:33:14.967Z,19.90
2018-09-14T07:35:44.097Z,19.80
2018-09-14T07:38:13.272Z,19.80
2018-09-14T07:40:42.516Z,19.70
2018-09-14T07:43:11.643Z,19.70
2018-09-14T07:45:40.705Z,19.70
2018-09-14T07:48:09.857Z,19.70
2018-09-14T07:50:38.957Z,19.70
2018-09-14T07:53:08.111Z,19.70
2018-09-14T07:55:37.268Z,19.80
2018-09-14T07:58:06.358Z,19.80
2018-09-14T08:00:35.519Z,19.90
2018-09-14T08:03:04.649Z,19.90
2018-09-14T08:05:34.065Z,19.90
2018-09-14T08:08:03.248Z,20.00
2018-09-14T08:10:32.401Z,20.10
2018-09-14T08:13:05.398Z,20.10
2018-09-14T08:15:34.717Z,20.20
2018-09-14T08:18:03.831Z,20.30
2018-09-14T08:20:33.107Z,20.30
2018-09-14T08:23:02.393Z,20.40
2018-09-14T08:25:31.472Z,20.40
2018-09-14T08:28:00.567Z,20.50
2018-09-14T08:30:29.676Z,20.60
2018-09-14T08:32:58.832Z,20.70
2018-09-14T08:35:28.000Z,20.80
2018-09-14T08:37:57.086Z,20.80
2018-09-14T08:40:26.307Z,20.90
2018-09-14T08:42:55.507Z,20.80
2018-09-14T08:45:24.732Z,20.60
2018-09-14T08:47:54.014Z,20.60
2018-09-14T08:50:23.111Z,20.50
2018-09-14T08:52:52.284Z,20.30
2018-09-14T08:55:21.373Z,20.30
2018-09-14T08:57:50.539Z,20.30
2018-09-14T09:00:23.957Z,20.20
2018-09-14T09:02:54.116Z,20.30
2018-09-14T09:05:24.006Z,20.30
2018-09-14T09:07:53.113Z,20.50
2018-09-14T09:10:22.321Z,20.60
2018-09-14T09:12:51.512Z,20.60
2018-09-14T09:15:20.714Z,20.70
2018-09-14T09:17:49.951Z,20.70
2018-09-14T09:20:18.962Z,20.70
2018-09-14T09:22:48.207Z,20.60
2018-09-14T09:25:17.395Z,20.60
2018-09-14T09:27:46.479Z,20.60
2018-09-14T09:30:15.693Z,20.60
2018-09-14T09:32:44.866Z,20.60
2018-09-14T09:35:14.100Z,20.60
2018-09-14T09:37:43.298Z,20.60
2018-09-14T09:40:12.465Z,20.60
2018-09-14T09:42:41.676Z,20.70
2018-09-14T09:45:10.828Z,20.60
2018-09-14T09:47:40.577Z,20.60
2018-09-14T09:50:09.774Z,20.50
2018-09-14T09:52:38.916Z,20.50
2018-09-14T09:55:08.147Z,20.50
2018-09-14T09:57:37.251Z,20.50
2018-09-14T10:00:10.346Z,20.50
2018-09-14T10:02:43.566Z,20.50
2018-09-14T10:05:17.807Z,20.50
2018-09-14T10:07:46.764Z,20.50
2018-09-14T10:10:15.818Z,20.60
2018-09-14T10:12:44.959Z,20.70
2018-09-14T10:15:14.150Z,20.70
2018-09-14T10:17:43.288Z,20.90
2018-09-14T10:20:12.395Z,21.00
2018-09-14T10:22:41.541Z,21.20
2018-09-14T10:25:10.599Z,21.40
2018-09-14T10:27:39.709Z,21.60
2018-09-14T10:30:08.775Z,21.90
2018-09-14T10:32:45.505Z,22.20
2018-09-14T10:35:14.652Z,22.30
2018-09-14T10:37:43.731Z,22.30
2018-09-14T10:40:12.951Z,22.30
2018-09-14T10:42:42.044Z,22.40
2018-09-14T10:45:11.063Z,22.30
2018-09-14T10:47:40.291Z,22.20
2018-09-14T10:50:09.301Z,22.10
2018-09-14T10:52:38.675Z,22.20
2018-09-14T10:55:07.729Z,22.00
2018-09-14T10:57:36.779Z,22.10
2018-09-14T11:00:06.337Z,22.20
2018-09-14T11:02:35.289Z,22.60
2018-09-14T11:05:04.403Z,23.00
2018-09-14T11:07:33.466Z,23.20
2018-09-14T11:10:02.594Z,23.20
2018-09-14T11:12:31.678Z,23.10
2018-09-14T11:15:00.719Z,23.00
2018-09-14T11:17:29.843Z,22.90
2018-09-14T11:19:58.905Z,23.00
2018-09-14T11:22:27.951Z,23.00
2018-09-14T11:24:57.011Z,23.00
2018-09-14T11:27:26.060Z,23.00
2018-09-14T11:29:55.124Z,22.90
2018-09-14T11:32:24.271Z,22.90
2018-09-14T11:34:53.390Z,22.90
2018-09-14T11:37:22.641Z,22.90
2018-09-14T11:39:51.867Z,22.90
2018-09-14T11:42:20.939Z,22.80
2018-09-14T11:44:50.033Z,22.70
2018-09-14T11:47:19.113Z,22.60
2018-09-14T11:49:48.158Z,22.50
2018-09-14T11:52:17.283Z,22.50
2018-09-14T11:54:46.307Z,22.50
2018-09-14T11:57:15.376Z,22.60
2018-09-14T11:59:44.425Z,22.60
2018-09-14T12:02:13.453Z,22.60
2018-09-14T12:04:42.508Z,22.60
2018-09-14T12:07:11.646Z,22.60
2018-09-14T12:09:40.769Z,22.60
2018-09-14T12:12:09.770Z,22.50
2018-09-14T12:14:38.901Z,22.40
2018-09-14T12:17:08.112Z,22.30
2018-09-14T12:19:37.223Z,22.20
2018-09-14T12:22:06.380Z,22.20
2018-09-14T12:24:35.363Z,22.10
2018-09-14T12:27:05.247Z,22.10
2018-09-14T12:29:34.537Z,22.00
2018-09-14T12:32:03.662Z,21.90
2018-09-14T12:34:32.781Z,21.90
2018-09-14T12:37:01.839Z,21.80
2018-09-14T12:39:31.021Z,21.70
2018-09-14T12:42:00.055Z,21.60
2018-09-14T12:44:29.194Z,21.50
2018-09-14T12:46:58.364Z,21.40
2018-09-14T12:49:28.547Z,21.40
2018-09-14T12:51:57.956Z,21.30
2018-09-14T12:54:27.150Z,21.20
2018-09-14T12:56:56.203Z,21.10
2018-09-14T12:59:25.414Z,21.10
2018-09-14T13:01:54.419Z,21.00
2018-09-14T13:04:23.564Z,20.90
2018-09-14T13:06:52.635Z,20.70
2018-09-14T13:09:21.781Z,20.60
2018-09-14T13:11:50.903Z,20.40
2018-09-14T13:14:21.156Z,20.40
2018-09-14T13:16:50.750Z,20.20
2018-09-14T13:19:20.276Z,20.20
2018-09-14T13:21:49.336Z,20.10
2018-09-14T13:24:18.459Z,20.00
2018-09-14T13:26:47.579Z,20.00
2018-09-14T13:29:16.616Z,19.90
2018-09-14T13:31:45.746Z,19.90
2018-09-14T13:34:14.982Z,19.80
2018-09-14T13:36:43.993Z,19.80
2018-09-14T13:39:13.086Z,19.80
2018-09-14T13:41:42.179Z,19.70
2018-09-14T13:44:11.390Z,19.70
2018-09-14T13:46:40.475Z,19.70
2018-09-14T13:49:09.538Z,19.70
2018-09-14T13:51:38.744Z,19.70
2018-09-14T13:54:07.855Z,19.60
2018-09-14T13:56:37.025Z,19.60
2018-09-14T13:59:06.166Z,19.60
2018-09-14T14:01:35.390Z,19.60
2018-09-14T14:04:04.711Z,19.60
2018-09-14T14:06:33.887Z,19.50
2018-09-14T14:09:02.997Z,19.50
2018-09-14T14:11:32.160Z,19.50
2018-09-14T14:14:01.265Z,19.40
2018-09-14T14:16:30.384Z,19.40
2018-09-14T14:18:59.610Z,19.40
2018-09-14T14:21:28.796Z,19.30
2018-09-14T14:23:57.891Z,19.30
2018-09-14T14:26:27.072Z,19.30
2018-09-14T14:28:56.172Z,19.30
2018-09-14T14:31:25.363Z,19.30
2018-09-14T14:33:54.582Z,19.20
2018-09-14T14:36:24.045Z,19.20
2018-09-14T14:38:53.421Z,19.10
2018-09-14T14:41:22.754Z,19.10
2018-09-14T14:43:51.998Z,19.00
2018-09-14T14:46:21.110Z,18.90
2018-09-14T14:48:50.299Z,18.90
2018-09-14T14:51:19.447Z,18.90
2018-09-14T14:53:48.536Z,18.80
2018-09-14T14:56:17.701Z,18.80
2018-09-14T14:58:46.830Z,18.80
2018-09-14T15:01:15.918Z,18.80
2018-09-14T15:03:45.039Z,18.80
2018-09-14T15:06:14.154Z,18.70
2018-09-14T15:08:43.240Z,18.70
2018-09-14T15:11:12.367Z,18.70
2018-09-14T15:13:41.839Z,18.60
2018-09-14T15:16:11.004Z,18.50
2018-09-14T15:18:40.170Z,18.50
2018-09-14T15:21:09.351Z,18.40
2018-09-14T15:23:38.472Z,18.40
2018-09-14T15:26:07.530Z,18.40
2018-09-14T15:28:36.599Z,18.40
2018-09-14T15:31:05.770Z,18.40
2018-09-14T15:33:34.930Z,18.40
2018-09-14T15:36:04.130Z,18.30
2018-09-14T15:38:33.281Z,18.30
2018-09-14T15:41:02.489Z,18.30
2018-09-14T15:43:31.601Z,18.30
2018-09-14T15:46:00.603Z,18.30
2018-09-14T15:48:29.729Z,18.30
2018-09-14T15:50:58.826Z,18.30
2018-09-14T15:53:27.972Z,18.30
2018-09-14T15:55:57.121Z,18.30
2018-09-14T15:58:26.160Z,18.30
2018-09-14T16:00:55.244Z,18.30
2018-09-14T16:03:24.467Z,18.30
2018-09-14T16:05:53.680Z,18.20
2018-09-14T16:08:22.841Z,18.20
2018-09-14T16:10:51.967Z,18.20
2018-09-14T16:13:21.176Z,18.10
2018-09-14T16:15:50.248Z,18.10
2018-09-14T16:18:19.356Z,18.00
2018-09-14T16:20:48.504Z,18.00
2018-09-14T16:23:17.581Z,18.00
2018-09-14T16:25:46.652Z,17.90
2018-09-14T16:28:16.395Z,17.90
2018-09-14T16:30:45.400Z,17.90
2018-09-14T16:33:14.460Z,17.80
2018-09-14T16:35:43.491Z,17.80
2018-09-14T16:38:12.658Z,17.80
2018-09-14T16:40:41.667Z,17.80
2018-09-14T16:43:10.704Z,17.80
2018-09-14T16:45:39.847Z,17.80
2018-09-14T16:48:08.883Z,17.70
2018-09-14T16:50:37.987Z,17.70
2018-09-14T16:53:07.076Z,17.70
2018-09-14T16:55:36.289Z,17.70
2018-09-14T16:58:05.364Z,17.70
2018-09-14T17:00:34.403Z,17.70
2018-09-14T17:03:03.396Z,17.70
2018-09-14T17:05:32.433Z,17.70
2018-09-14T17:08:01.558Z,17.70
2018-09-14T17:10:30.592Z,17.60
2018-09-14T17:12:59.699Z,17.60
2018-09-14T17:15:28.853Z,17.60
2018-09-14T17:17:57.896Z,17.50
2018-09-14T17:20:26.962Z,17.60
2018-09-14T17:22:55.997Z,17.50
2018-09-14T17:25:25.103Z,17.50
2018-09-14T17:27:54.143Z,17.50
2018-09-14T17:30:23.284Z,17.50
2018-09-14T17:32:52.467Z,17.50
2018-09-14T17:35:21.571Z,17.40
2018-09-14T17:37:50.721Z,17.40
2018-09-14T17:40:19.777Z,17.40
2018-09-14T17:42:48.821Z,17.40
2018-09-14T17:45:17.901Z,17.40
2018-09-14T17:47:47.046Z,17.40
2018-09-14T17:50:16.172Z,17.40
2018-09-14T17:52:45.198Z,17.40
2018-09-14T17:55:14.250Z,17.40
2018-09-14T17:57:43.395Z,17.40
2018-09-14T18:00:12.518Z,17.40
2018-09-14T18:02:41.547Z,17.40
2018-09-14T18:05:10.635Z,17.40
2018-09-14T18:07:39.667Z,17.40
2018-09-14T18:10:08.940Z,17.40
2018-09-14T18:12:37.970Z,17.40
2018-09-14T18:15:07.178Z,17.40
2018-09-14T18:17:36.165Z,17.40
2018-09-14T18:20:05.135Z,17.40
2018-09-14T18:22:34.183Z,17.50
2018-09-14T18:25:03.288Z,17.40
2018-09-14T18:27:32.371Z,17.40
2018-09-14T18:30:01.412Z,17.40
2018-09-14T18:32:30.483Z,17.30
2018-09-14T18:34:59.694Z,17.40
2018-09-14T18:37:28.768Z,17.40
2018-09-14T18:39:57.846Z,17.30
2018-09-14T18:42:26.975Z,17.30
2018-09-14T18:44:56.035Z,17.30
2018-09-14T18:47:25.094Z,17.30
2018-09-14T18:49:54.307Z,17.40
2018-09-14T18:52:23.464Z,17.40
2018-09-14T18:54:52.625Z,17.30
2018-09-14T18:57:21.732Z,17.30
2018-09-14T18:59:50.907Z,17.20
2018-09-14T19:02:20.051Z,17.20
2018-09-14T19:04:49.201Z,17.20
2018-09-14T19:07:18.431Z,17.20
2018-09-14T19:09:47.526Z,17.20
2018-09-14T19:12:16.655Z,17.20
2018-09-14T19:14:45.941Z,17.20
2018-09-14T19:17:15.048Z,17.20
2018-09-14T19:19:44.277Z,17.20
2018-09-14T19:22:13.462Z,17.20
2018-09-14T19:24:42.641Z,17.20
2018-09-14T19:27:11.886Z,17.20
2018-09-14T19:29:41.047Z,17.20
2018-09-14T19:32:10.251Z,17.10
2018-09-14T19:34:39.430Z,17.10
2018-09-14T19:37:08.688Z,17.10
2018-09-14T19:39:37.936Z,17.10
2018-09-14T19:42:07.072Z,17.10
2018-09-14T19:44:36.290Z,17.00
2018-09-14T19:47:05.556Z,17.00
2018-09-14T19:49:44.553Z,17.00
2018-09-14T19:52:13.691Z,17.00
2018-09-14T19:54:42.852Z,16.90
2018-09-14T19:57:11.967Z,16.90
2018-09-14T19:59:41.231Z,16.90
2018-09-14T20:02:10.390Z,16.90
2018-09-14T20:04:39.491Z,16.80
2018-09-14T20:07:08.675Z,16.80
2018-09-14T20:09:37.825Z,16.90
2018-09-14T20:12:06.929Z,16.90
2018-09-14T20:14:36.069Z,16.90
2018-09-14T20:17:05.276Z,16.90
2018-09-14T20:19:34.428Z,16.90
2018-09-14T20:22:03.728Z,16.90
2018-09-14T20:24:32.867Z,16.90
2018-09-14T20:27:02.020Z,16.90
2018-09-14T20:29:31.124Z,16.90
2018-09-14T20:32:00.238Z,16.90
2018-09-14T20:34:29.353Z,16.90
2018-09-14T20:36:58.519Z,16.90
2018-09-14T20:39:27.615Z,16.90
2018-09-14T20:41:56.803Z,16.90
2018-09-14T20:44:25.978Z,16.90
2018-09-14T20:46:55.201Z,16.80
2018-09-14T20:49:24.431Z,16.80
2018-09-14T20:51:53.729Z,16.70
2018-09-14T20:54:22.842Z,16.70
2018-09-14T20:56:52.010Z,16.60
2018-09-14T20:59:21.120Z,16.60
2018-09-14T21:01:50.258Z,16.60
2018-09-14T21:04:19.531Z,16.50
2018-09-14T21:06:48.788Z,16.50
2018-09-14T21:09:17.971Z,16.40
2018-09-14T21:11:47.205Z,16.40
2018-09-14T21:14:16.343Z,16.40
2018-09-14T21:16:45.374Z,16.40
2018-09-14T21:19:14.521Z,16.40
2018-09-14T21:21:43.752Z,16.40
2018-09-14T21:24:12.848Z,16.40
2018-09-14T21:26:42.015Z,16.70
2018-09-14T21:29:11.282Z,16.70
2018-09-14T21:31:40.524Z,16.80
2018-09-14T21:34:09.622Z,16.80
2018-09-14T21:36:38.777Z,16.80
2018-09-14T21:39:10.728Z,16.80
2018-09-14T21:41:40.099Z,16.80
2018-09-14T21:44:09.749Z,16.80
2018-09-14T21:46:39.127Z,16.80
2018-09-14T21:49:08.452Z,16.80
2018-09-14T21:51:37.802Z,16.70
2018-09-14T21:54:06.986Z,16.80
2018-09-14T21:56:36.046Z,16.70
2018-09-14T21:59:05.203Z,16.70
2018-09-14T22:01:34.347Z,16.60
2018-09-14T22:04:03.488Z,16.60
2018-09-14T22:06:32.541Z,16.50
2018-09-14T22:09:01.669Z,16.40
2018-09-14T22:11:30.900Z,16.40
2018-09-14T22:14:00.111Z,16.40
2018-09-14T22:16:29.461Z,16.40
2018-09-14T22:18:59.175Z,16.30
2018-09-14T22:21:28.633Z,16.30
2018-09-14T22:23:57.876Z,16.30
2018-09-14T22:26:27.020Z,16.30
2018-09-14T22:28:56.156Z,16.30
2018-09-14T22:31:25.203Z,16.30
2018-09-14T22:33:54.306Z,16.20
2018-09-14T22:36:23.431Z,16.20
2018-09-14T22:38:52.651Z,16.20
2018-09-14T22:41:21.966Z,16.20
2018-09-14T22:43:51.095Z,16.20
2018-09-14T22:46:20.274Z,16.20
2018-09-14T22:48:49.508Z,16.20
2018-09-14T22:51:18.646Z,16.20
2018-09-14T22:53:47.971Z,16.20
2018-09-14T22:56:17.087Z,16.10
2018-09-14T22:58:46.240Z,16.10
2018-09-14T23:01:16.567Z,16.10
2018-09-14T23:03:46.795Z,16.10
2018-09-14T23:06:16.012Z,16.20
2018-09-14T23:08:45.288Z,16.10
2018-09-14T23:11:14.566Z,16.10
2018-09-14T23:13:43.662Z,16.10
2018-09-14T23:16:12.841Z,16.00
2018-09-14T23:18:42.134Z,16.00
2018-09-14T23:21:11.278Z,16.00
2018-09-14T23:23:40.441Z,15.90
2018-09-14T23:26:12.106Z,15.90
2018-09-14T23:28:41.312Z,15.80
2018-09-14T23:31:10.453Z,15.80
2018-09-14T23:33:39.683Z,15.80
2018-09-14T23:36:08.923Z,15.90
2018-09-14T23:38:38.141Z,15.80
2018-09-14T23:41:07.366Z,15.90
2018-09-14T23:43:36.592Z,15.90
2018-09-14T23:46:05.720Z,15.90
2018-09-14T23:48:34.933Z,15.90
2018-09-14T23:51:04.465Z,16.00
2018-09-14T23:53:33.563Z,16.00
2018-09-14T23:56:02.818Z,16.00
2018-09-14T23:58:32.068Z,16.00
